Time;durP1;ratioP1;P1;durP2;ratioP2;P2;SDS_P1;SDS_P2;PMS_P1;PMS_P2;Temp;Humidity;BMP_temperature;BMP_pressure;BME280_temperature;BME280_humidity;BME280_pressure;Samples;Min_cycle;Max_cycle;Signal;HPM_P1;HPM_P2
2021/05/31 00:00:25;;;;;;;17.17;10.82;;;;;;;;;;4432242;32;20525;-68
2021/05/31 00:02:50;;;;;;;17.55;10.90;;;;;;;;;;4419780;32;20227;-68
2021/05/31 00:05:17;;;;;;;17.67;11.25;;;;;;;;;;4433720;32;20420;-68
2021/05/31 00:07:42;;;;;;;19.65;11.63;;;;;;;;;;4432332;32;20546;-68
2021/05/31 00:10:08;;;;;;;18.08;11.05;;;;;;;;;;4420075;32;20264;-68
2021/05/31 00:12:33;;;;;;;18.67;11.00;;;;;;;;;;4428635;32;20163;-68
2021/05/31 00:14:58;;;;;;;18.50;10.63;;;;;;;;;;4416952;32;20169;-69
2021/05/31 00:17:24;;;;;;;17.23;11.35;;;;;;;;;;4417407;32;20204;-68
2021/05/31 00:19:51;;;;;;;18.83;10.65;;;;;;;;;;4404156;32;20600;-68
2021/05/31 00:22:16;;;;;;;14.73;10.52;;;;;;;;;;4417500;32;20141;-69
2021/05/31 00:24:41;;;;;;;15.27;10.48;;;;;;;;;;4418652;32;20543;-68
2021/05/31 00:27:07;;;;;;;17.35;11.45;;;;;;;;;;4418523;32;20257;-68
2021/05/31 00:29:32;;;;;;;17.40;10.70;;;;;;;;;;4423491;32;20141;-71
2021/05/31 00:31:57;;;;;;;20.73;11.52;;;;;;;;;;4432603;32;20408;-69
2021/05/31 00:34:23;;;;;;;16.80;10.95;;;;;;;;;;4432381;32;20149;-69
2021/05/31 00:36:48;;;;;;;15.70;11.38;;;;;;;;;;4432587;32;20507;-68
2021/05/31 00:39:13;;;;;;;18.12;10.95;;;;;;;;;;4418695;32;20161;-69
2021/05/31 00:41:43;;;;;;;17.50;11.12;;;;;;;;;;4433965;32;20483;-69
2021/05/31 00:44:08;;;;;;;17.70;11.10;;;;;;;;;;4420220;32;20196;-69
2021/05/31 00:46:34;;;;;;;21.30;11.85;;;;;;;;;;4420893;32;20134;-69
2021/05/31 00:48:59;;;;;;;17.40;11.48;;;;;;;;;;4403683;32;20257;-69
2021/05/31 00:51:25;;;;;;;19.45;11.82;;;;;;;;;;4419671;32;20138;-69
2021/05/31 00:53:51;;;;;;;17.08;11.77;;;;;;;;;;4419866;32;20165;-69
2021/05/31 00:56:17;;;;;;;20.60;11.93;;;;;;;;;;4418002;32;20431;-69
2021/05/31 00:58:42;;;;;;;17.85;11.12;;;;;;;;;;4418208;32;20172;-69
2021/05/31 01:01:08;;;;;;;16.12;12.00;;;;;;;;;;4419414;32;20134;-69
2021/05/31 01:03:33;;;;;;;17.30;11.82;;;;;;;;;;4419981;32;20165;-69
2021/05/31 01:06:01;;;;;;;18.15;11.32;;;;;;;;;;4419058;32;20620;-69
2021/05/31 01:08:30;;;;;;;17.12;11.70;;;;;;;;;;4405316;32;20220;-69
2021/05/31 01:11:00;;;;;;;21.02;13.05;;;;;;;;;;4405709;32;20591;-70
2021/05/31 01:13:48;;;;;;;22.30;12.32;;;;;;;;;;4414193;32;20177;-68
2021/05/31 01:16:18;;;;;;;16.17;10.82;;;;;;;;;;4426944;32;20270;-69
2021/05/31 01:18:45;;;;;;;19.67;13.13;;;;;;;;;;4419866;32;20134;-69
2021/05/31 01:21:15;;;;;;;19.05;11.88;;;;;;;;;;4404722;32;20165;-68
2021/05/31 01:23:41;;;;;;;20.75;11.60;;;;;;;;;;4403634;32;20158;-69
2021/05/31 01:26:15;;;;;;;23.20;12.15;;;;;;;;;;4418673;32;20228;-69
2021/05/31 01:28:46;;;;;;;20.75;11.75;;;;;;;;;;4437413;32;20276;-68
2021/05/31 01:31:15;;;;;;;20.40;11.95;;;;;;;;;;4435360;32;20133;-69
2021/05/31 01:33:40;;;;;;;17.67;12.73;;;;;;;;;;4435315;32;20145;-69
2021/05/31 01:36:05;;;;;;;17.60;11.35;;;;;;;;;;4415919;32;20234;-69
2021/05/31 01:38:31;;;;;;;18.40;11.70;;;;;;;;;;4406515;32;20157;-69
2021/05/31 01:40:57;;;;;;;18.90;11.82;;;;;;;;;;4422460;32;20137;-68
2021/05/31 01:43:23;;;;;;;20.92;12.60;;;;;;;;;;4421795;32;20165;-67
2021/05/31 01:45:48;;;;;;;20.85;12.15;;;;;;;;;;4432612;32;20192;-68
2021/05/31 01:48:14;;;;;;;19.87;12.37;;;;;;;;;;4421017;32;20218;-69
2021/05/31 01:50:39;;;;;;;15.27;11.27;;;;;;;;;;4436400;32;20191;-69
2021/05/31 01:53:05;;;;;;;21.65;12.77;;;;;;;;;;4437233;32;20191;-69
2021/05/31 01:55:31;;;;;;;24.48;12.90;;;;;;;;;;4437087;32;20138;-70
2021/05/31 01:57:57;;;;;;;19.77;13.20;;;;;;;;;;4420498;32;20237;-68
2021/05/31 02:00:22;;;;;;;20.55;13.05;;;;;;;;;;4437210;32;20534;-69
2021/05/31 02:02:48;;;;;;;19.92;11.80;;;;;;;;;;4427471;32;20497;-69
2021/05/31 02:05:15;;;;;;;21.15;13.85;;;;;;;;;;4419610;32;20149;-69
2021/05/31 02:07:40;;;;;;;18.50;11.57;;;;;;;;;;4432676;32;20157;-69
2021/05/31 02:10:06;;;;;;;17.50;11.77;;;;;;;;;;4434334;32;20168;-69
2021/05/31 02:12:36;;;;;;;20.35;12.93;;;;;;;;;;4433812;32;20230;-68
2021/05/31 02:15:05;;;;;;;21.77;13.10;;;;;;;;;;4434148;32;20156;-69
2021/05/31 02:17:40;;;;;;;18.48;12.57;;;;;;;;;;4435703;32;20245;-68
2021/05/31 02:20:07;;;;;;;22.70;13.52;;;;;;;;;;4435785;32;20166;-69
2021/05/31 02:22:34;;;;;;;20.77;12.37;;;;;;;;;;4428336;32;20142;-69
2021/05/31 02:25:00;;;;;;;21.30;12.93;;;;;;;;;;4407711;32;20200;-69
2021/05/31 02:27:26;;;;;;;20.88;12.95;;;;;;;;;;4419313;32;20133;-69
2021/05/31 02:29:51;;;;;;;22.30;13.88;;;;;;;;;;4419514;32;20475;-69
2021/05/31 02:32:16;;;;;;;22.40;12.77;;;;;;;;;;4419956;32;20134;-69
2021/05/31 02:34:42;;;;;;;22.52;13.98;;;;;;;;;;4421192;32;20164;-69
2021/05/31 02:37:08;;;;;;;23.73;14.63;;;;;;;;;;4420108;32;20145;-68
2021/05/31 02:39:34;;;;;;;22.23;13.62;;;;;;;;;;4419399;32;20125;-69
2021/05/31 02:41:59;;;;;;;25.05;13.20;;;;;;;;;;4409348;32;20693;-69
2021/05/31 02:44:24;;;;;;;25.12;15.45;;;;;;;;;;4433579;32;20208;-69
2021/05/31 02:46:49;;;;;;;21.48;12.90;;;;;;;;;;4435775;32;20681;-68
2021/05/31 02:49:14;;;;;;;25.30;13.38;;;;;;;;;;4435043;32;20196;-68
2021/05/31 02:51:39;;;;;;;20.77;13.07;;;;;;;;;;4435480;32;20145;-68
2021/05/31 02:54:06;;;;;;;24.70;14.35;;;;;;;;;;4433884;32;20130;-68
2021/05/31 02:56:31;;;;;;;24.92;14.60;;;;;;;;;;4433928;32;20229;-68
2021/05/31 02:58:56;;;;;;;23.33;14.80;;;;;;;;;;4434023;32;20163;-69
2021/05/31 03:01:22;;;;;;;26.30;15.23;;;;;;;;;;4420238;32;20173;-68
2021/05/31 03:03:47;;;;;;;26.00;15.95;;;;;;;;;;4435606;32;20252;-68
2021/05/31 03:06:12;;;;;;;24.00;14.57;;;;;;;;;;4434571;32;20313;-68
2021/05/31 03:08:37;;;;;;;24.23;14.20;;;;;;;;;;4436241;32;20511;-68
2021/05/31 03:11:02;;;;;;;23.83;14.45;;;;;;;;;;4427575;32;20137;-68
2021/05/31 03:13:28;;;;;;;27.15;16.20;;;;;;;;;;4428704;32;20497;-69
2021/05/31 03:15:54;;;;;;;22.85;14.25;;;;;;;;;;4436573;32;20145;-69
2021/05/31 03:18:19;;;;;;;27.25;15.55;;;;;;;;;;4434492;32;20172;-68
2021/05/31 03:20:44;;;;;;;28.60;16.23;;;;;;;;;;4436361;32;20603;-69
2021/05/31 03:23:09;;;;;;;22.30;14.70;;;;;;;;;;4406759;32;20188;-69
2021/05/31 03:25:34;;;;;;;25.77;15.15;;;;;;;;;;4419161;32;20126;-69
2021/05/31 03:27:59;;;;;;;23.75;15.00;;;;;;;;;;4419260;32;20197;-69
2021/05/31 03:30:25;;;;;;;27.85;17.25;;;;;;;;;;4420602;32;20205;-68
2021/05/31 03:32:51;;;;;;;28.40;16.70;;;;;;;;;;4419544;32;20187;-68
2021/05/31 03:35:16;;;;;;;30.98;17.12;;;;;;;;;;4420125;32;20141;-69
2021/05/31 03:37:42;;;;;;;30.62;16.08;;;;;;;;;;4419753;32;20129;-68
2021/05/31 03:40:07;;;;;;;25.58;15.57;;;;;;;;;;4418730;32;20565;-69
2021/05/31 03:42:33;;;;;;;30.77;17.02;;;;;;;;;;4420548;32;20152;-69
2021/05/31 03:44:58;;;;;;;32.17;18.40;;;;;;;;;;4419337;32;20582;-69
2021/05/31 03:47:23;;;;;;;32.13;16.92;;;;;;;;;;4419579;32;20129;-69
2021/05/31 03:49:48;;;;;;;28.30;17.42;;;;;;;;;;4419918;32;20166;-69
2021/05/31 03:52:14;;;;;;;35.42;17.30;;;;;;;;;;4419539;32;20200;-68
2021/05/31 03:54:39;;;;;;;31.48;17.85;;;;;;;;;;4419378;32;20253;-69
2021/05/31 03:57:04;;;;;;;39.13;19.35;;;;;;;;;;4405426;32;20191;-68
2021/05/31 03:59:30;;;;;;;32.42;17.83;;;;;;;;;;4419401;32;20222;-69
2021/05/31 04:01:55;;;;;;;34.75;18.80;;;;;;;;;;4430219;32;20142;-68
2021/05/31 04:04:21;;;;;;;32.38;19.10;;;;;;;;;;4434392;32;20278;-69
2021/05/31 04:11:55;;;;;;;35.08;18.98;;;;;;;;;;4434824;32;20573;-68
2021/05/31 04:14:21;;;;;;;32.85;19.73;;;;;;;;;;4420434;32;20138;-68
2021/05/31 04:16:47;;;;;;;27.52;17.70;;;;;;;;;;4406139;32;20200;-68
2021/05/31 04:19:12;;;;;;;34.60;18.45;;;;;;;;;;4420416;32;20133;-69
2021/05/31 04:21:39;;;;;;;32.80;19.08;;;;;;;;;;4432717;32;20179;-69
2021/05/31 04:24:05;;;;;;;33.05;18.85;;;;;;;;;;4435216;32;20440;-69
2021/05/31 04:26:32;;;;;;;33.33;18.52;;;;;;;;;;4421386;32;20210;-69
2021/05/31 04:28:58;;;;;;;33.50;18.40;;;;;;;;;;4420678;32;20216;-69
2021/05/31 04:31:24;;;;;;;30.83;17.80;;;;;;;;;;4435584;32;20456;-67
2021/05/31 04:33:49;;;;;;;32.30;19.42;;;;;;;;;;4434541;32;20164;-68
2021/05/31 04:36:14;;;;;;;27.55;18.08;;;;;;;;;;4435454;32;20137;-69
2021/05/31 04:38:39;;;;;;;35.28;19.20;;;;;;;;;;4434215;32;20141;-69
2021/05/31 04:41:05;;;;;;;34.30;19.27;;;;;;;;;;4408259;32;20173;-69
2021/05/31 04:43:30;;;;;;;33.58;18.50;;;;;;;;;;4418708;32;20137;-69
2021/05/31 04:45:56;;;;;;;28.58;16.45;;;;;;;;;;4405782;32;20153;-69
2021/05/31 04:48:21;;;;;;;28.30;18.00;;;;;;;;;;4419759;32;20551;-69
2021/05/31 04:50:46;;;;;;;28.87;16.95;;;;;;;;;;4424770;32;20142;-69
2021/05/31 04:53:12;;;;;;;26.55;16.98;;;;;;;;;;4433956;32;20155;-70
2021/05/31 04:55:38;;;;;;;27.27;17.20;;;;;;;;;;4432289;32;20145;-68
2021/05/31 04:58:03;;;;;;;31.15;18.42;;;;;;;;;;4433966;32;20452;-69
2021/05/31 05:00:28;;;;;;;29.63;17.58;;;;;;;;;;4419449;32;20173;-68
2021/05/31 05:02:54;;;;;;;32.47;18.52;;;;;;;;;;4421115;32;20475;-68
2021/05/31 05:05:19;;;;;;;30.95;17.83;;;;;;;;;;4420748;32;20184;-68
2021/05/31 05:07:45;;;;;;;31.20;17.50;;;;;;;;;;4404475;32;20165;-68
2021/05/31 05:10:12;;;;;;;31.55;18.85;;;;;;;;;;4407673;32;20146;-67
2021/05/31 05:12:37;;;;;;;31.77;17.83;;;;;;;;;;4435920;32;20180;-68
2021/05/31 05:15:02;;;;;;;29.73;17.42;;;;;;;;;;4431784;32;20179;-69
2021/05/31 05:17:28;;;;;;;26.23;16.48;;;;;;;;;;4419368;32;20280;-69
2021/05/31 05:19:53;;;;;;;32.38;17.58;;;;;;;;;;4405914;32;20183;-69
2021/05/31 05:22:18;;;;;;;31.58;17.65;;;;;;;;;;4405973;32;20130;-68
2021/05/31 05:24:43;;;;;;;30.35;18.60;;;;;;;;;;4410748;32;20340;-69
2021/05/31 05:27:08;;;;;;;33.47;17.37;;;;;;;;;;4420069;32;20207;-69
2021/05/31 05:29:34;;;;;;;27.87;16.37;;;;;;;;;;4419674;32;20169;-68
2021/05/31 05:32:00;;;;;;;25.15;17.08;;;;;;;;;;4419991;32;20621;-69
2021/05/31 05:34:25;;;;;;;32.60;17.65;;;;;;;;;;4422444;32;20134;-69
2021/05/31 05:36:57;;;;;;;26.77;17.00;;;;;;;;;;4420446;32;20161;-68
2021/05/31 05:39:48;;;;;;;25.62;16.37;;;;;;;;;;4421721;32;20547;-69
2021/05/31 05:42:24;;;;;;;31.83;17.12;;;;;;;;;;4422519;32;20487;-69
2021/05/31 05:50:28;;;;;;;27.48;16.27;;;;;;;;;;4422266;32;20134;-69
2021/05/31 05:52:53;;;;;;;28.15;14.52;;;;;;;;;;4421931;32;20589;-69
2021/05/31 05:55:19;;;;;;;25.35;15.35;;;;;;;;;;4420021;32;20173;-68
2021/05/31 05:57:44;;;;;;;21.65;15.40;;;;;;;;;;4419064;32;20141;-68
2021/05/31 06:00:12;;;;;;;27.70;14.98;;;;;;;;;;4420328;32;20195;-69
2021/05/31 06:02:37;;;;;;;20.77;13.98;;;;;;;;;;4418870;32;20234;-68
2021/05/31 06:05:02;;;;;;;23.67;14.75;;;;;;;;;;4420759;32;20491;-69
2021/05/31 06:07:28;;;;;;;27.08;16.20;;;;;;;;;;4419762;32;20169;-68
2021/05/31 06:09:53;;;;;;;26.37;14.85;;;;;;;;;;4421959;32;20130;-69
2021/05/31 06:12:18;;;;;;;27.73;14.63;;;;;;;;;;4421547;32;20138;-69
2021/05/31 06:14:44;;;;;;;24.23;14.43;;;;;;;;;;4420062;32;20134;-69
2021/05/31 06:17:09;;;;;;;28.02;16.25;;;;;;;;;;4421615;32;20223;-68
2021/05/31 06:19:34;;;;;;;28.45;14.57;;;;;;;;;;4420996;32;20141;-69
2021/05/31 06:21:59;;;;;;;22.27;14.87;;;;;;;;;;4419724;32;20165;-69
2021/05/31 06:24:24;;;;;;;21.92;13.62;;;;;;;;;;4420285;32;20244;-69
2021/05/31 06:26:50;;;;;;;24.35;13.88;;;;;;;;;;4421143;32;20157;-68
2021/05/31 06:29:15;;;;;;;28.87;15.25;;;;;;;;;;4421838;32;20647;-69
2021/05/31 06:31:40;;;;;;;23.52;14.75;;;;;;;;;;4421336;32;20130;-68
2021/05/31 06:34:05;;;;;;;22.73;12.97;;;;;;;;;;4420224;32;20238;-69
2021/05/31 06:36:34;;;;;;;21.27;12.35;;;;;;;;;;4419201;32;20307;-68
2021/05/31 06:38:59;;;;;;;22.20;14.63;;;;;;;;;;4419535;32;20634;-68
2021/05/31 06:41:24;;;;;;;23.20;14.23;;;;;;;;;;4419457;32;20492;-69
2021/05/31 06:43:50;;;;;;;20.27;12.85;;;;;;;;;;4419643;32;20536;-68
2021/05/31 06:46:15;;;;;;;22.27;14.15;;;;;;;;;;4419273;32;20134;-69
2021/05/31 06:48:40;;;;;;;21.33;14.07;;;;;;;;;;4420486;32;20550;-71
2021/05/31 06:51:05;;;;;;;22.67;13.80;;;;;;;;;;4420204;32;20129;-69
2021/05/31 06:53:31;;;;;;;21.75;13.60;;;;;;;;;;4419438;32;20157;-69
2021/05/31 06:55:56;;;;;;;19.08;14.45;;;;;;;;;;4419358;32;20165;-68
2021/05/31 06:58:21;;;;;;;20.75;13.52;;;;;;;;;;4420114;32;20142;-69
2021/05/31 07:00:47;;;;;;;23.17;14.57;;;;;;;;;;4420474;32;20142;-68
2021/05/31 07:03:13;;;;;;;21.37;13.77;;;;;;;;;;4419204;32;20214;-68
2021/05/31 07:05:38;;;;;;;23.70;13.30;;;;;;;;;;4419206;32;20134;-68
2021/05/31 07:08:03;;;;;;;19.12;13.45;;;;;;;;;;4430991;32;20184;-69
2021/05/31 07:10:29;;;;;;;21.08;12.93;;;;;;;;;;4435225;32;20156;-70
2021/05/31 07:12:55;;;;;;;21.52;14.00;;;;;;;;;;4435628;32;20183;-70
2021/05/31 07:15:21;;;;;;;24.05;13.62;;;;;;;;;;4434522;32;20545;-68
2021/05/31 07:17:46;;;;;;;23.98;14.10;;;;;;;;;;4421023;32;20184;-68
2021/05/31 07:20:13;;;;;;;19.02;11.68;;;;;;;;;;4420236;32;20184;-69
2021/05/31 07:22:39;;;;;;;19.35;13.57;;;;;;;;;;4436308;32;20167;-69
2021/05/31 07:25:05;;;;;;;22.52;13.38;;;;;;;;;;4433353;32;20134;-68
2021/05/31 07:27:30;;;;;;;27.50;14.13;;;;;;;;;;4434281;32;20137;-69
2021/05/31 07:29:56;;;;;;;20.98;13.52;;;;;;;;;;4434774;32;20584;-71
2021/05/31 07:32:21;;;;;;;19.40;13.07;;;;;;;;;;4434728;32;20145;-69
2021/05/31 07:34:46;;;;;;;20.60;13.25;;;;;;;;;;4434246;32;20130;-68
2021/05/31 07:37:11;;;;;;;18.55;13.18;;;;;;;;;;4434638;32;20168;-69
2021/05/31 07:39:37;;;;;;;24.73;13.18;;;;;;;;;;4433738;32;20254;-69
2021/05/31 07:42:03;;;;;;;16.87;11.38;;;;;;;;;;4433944;32;20224;-69
2021/05/31 07:44:28;;;;;;;17.50;12.50;;;;;;;;;;4435776;32;20554;-69
2021/05/31 07:46:53;;;;;;;19.25;12.65;;;;;;;;;;4434092;32;20192;-69
2021/05/31 07:49:18;;;;;;;20.92;12.43;;;;;;;;;;4434405;32;20133;-69
2021/05/31 07:51:45;;;;;;;19.52;12.23;;;;;;;;;;4434514;32;20142;-68
2021/05/31 07:54:11;;;;;;;18.58;11.32;;;;;;;;;;4434601;32;20129;-69
2021/05/31 07:56:36;;;;;;;18.02;12.40;;;;;;;;;;4434730;32;20153;-69
2021/05/31 07:59:02;;;;;;;21.92;11.82;;;;;;;;;;4435325;32;20476;-69
2021/05/31 08:01:28;;;;;;;19.12;12.57;;;;;;;;;;4434495;32;20137;-68
2021/05/31 08:03:53;;;;;;;15.30;11.53;;;;;;;;;;4435580;32;20172;-69
2021/05/31 08:06:18;;;;;;;19.57;10.87;;;;;;;;;;4419484;32;20264;-68
2021/05/31 08:08:43;;;;;;;16.50;10.02;;;;;;;;;;4434334;32;20287;-68
2021/05/31 08:11:09;;;;;;;13.65;9.88;;;;;;;;;;4434781;32;20434;-69
2021/05/31 08:13:34;;;;;;;17.37;10.40;;;;;;;;;;4435570;32;20133;-69
2021/05/31 08:16:00;;;;;;;21.17;11.45;;;;;;;;;;4433335;32;20150;-68
2021/05/31 08:18:25;;;;;;;20.05;10.32;;;;;;;;;;4435121;32;20180;-69
2021/05/31 08:20:50;;;;;;;15.23;10.23;;;;;;;;;;4434436;32;20129;-69
2021/05/31 08:23:15;;;;;;;16.77;9.73;;;;;;;;;;4419043;32;20284;-69
2021/05/31 08:25:41;;;;;;;16.35;10.27;;;;;;;;;;4433426;32;20240;-69
2021/05/31 08:28:06;;;;;;;15.90;11.07;;;;;;;;;;4434592;32;20137;-68
2021/05/31 08:30:32;;;;;;;14.00;11.07;;;;;;;;;;4434482;32;20168;-69
2021/05/31 08:32:57;;;;;;;16.75;10.05;;;;;;;;;;4434222;32;20435;-69
2021/05/31 08:35:23;;;;;;;15.77;10.25;;;;;;;;;;4432952;32;20136;-69
2021/05/31 08:37:48;;;;;;;15.13;9.93;;;;;;;;;;4434864;32;20175;-69
2021/05/31 08:40:13;;;;;;;16.67;9.57;;;;;;;;;;4421267;32;20281;-70
2021/05/31 08:42:39;;;;;;;20.90;11.45;;;;;;;;;;4435044;32;20258;-69
2021/05/31 08:45:06;;;;;;;15.13;11.25;;;;;;;;;;4434118;32;20138;-69
2021/05/31 08:47:31;;;;;;;16.73;10.13;;;;;;;;;;4435790;32;20152;-69
2021/05/31 08:49:57;;;;;;;16.85;10.68;;;;;;;;;;4434233;32;20190;-69
2021/05/31 08:52:22;;;;;;;16.45;10.43;;;;;;;;;;4420101;32;20161;-68
2021/05/31 08:54:47;;;;;;;15.00;10.13;;;;;;;;;;4419980;32;20188;-69
2021/05/31 08:57:12;;;;;;;14.45;9.93;;;;;;;;;;4435263;32;20236;-69
2021/05/31 08:59:38;;;;;;;14.10;9.73;;;;;;;;;;4433704;32;20133;-69
2021/05/31 09:02:04;;;;;;;15.82;9.75;;;;;;;;;;4426757;32;20279;-69
2021/05/31 09:04:29;;;;;;;12.67;8.90;;;;;;;;;;4433267;32;20181;-68
2021/05/31 09:06:55;;;;;;;15.25;9.30;;;;;;;;;;4434017;32;20572;-68
2021/05/31 09:09:20;;;;;;;14.68;9.30;;;;;;;;;;4411652;32;20582;-69
2021/05/31 09:11:56;;;;;;;14.00;9.20;;;;;;;;;;4422984;32;20203;-69
2021/05/31 09:14:22;;;;;;;16.08;8.88;;;;;;;;;;4405427;32;20187;-69
2021/05/31 09:16:47;;;;;;;10.50;7.93;;;;;;;;;;4403134;32;20158;-69
2021/05/31 09:19:12;;;;;;;10.88;7.15;;;;;;;;;;4405095;32;20586;-69
2021/05/31 09:21:39;;;;;;;15.63;8.07;;;;;;;;;;4446052;32;20145;-69
2021/05/31 09:24:08;;;;;;;11.70;8.27;;;;;;;;;;4435485;32;20276;-68
2021/05/31 09:26:48;;;;;;;13.18;6.95;;;;;;;;;;4448632;32;20394;-69
2021/05/31 09:29:13;;;;;;;12.82;7.85;;;;;;;;;;4450441;32;20164;-70
2021/05/31 09:31:39;;;;;;;16.40;8.55;;;;;;;;;;4450841;32;20129;-68
2021/05/31 09:34:09;;;;;;;11.35;8.00;;;;;;;;;;4447857;32;20203;-68
2021/05/31 09:36:46;;;;;;;11.45;7.05;;;;;;;;;;4435563;32;20224;-69
2021/05/31 09:39:11;;;;;;;11.40;7.40;;;;;;;;;;4433766;32;20165;-68
2021/05/31 09:41:36;;;;;;;11.60;7.43;;;;;;;;;;4450212;32;20145;-69
2021/05/31 09:44:05;;;;;;;12.50;6.30;;;;;;;;;;4447789;32;20578;-70
2021/05/31 09:46:33;;;;;;;7.97;5.65;;;;;;;;;;4448501;32;20286;-69
2021/05/31 09:48:58;;;;;;;11.18;5.25;;;;;;;;;;4451159;32;20133;-70
2021/05/31 09:51:24;;;;;;;8.15;5.57;;;;;;;;;;4437974;32;20461;-68
2021/05/31 09:53:51;;;;;;;11.20;6.23;;;;;;;;;;4435955;32;20199;-67
2021/05/31 09:56:16;;;;;;;9.55;6.35;;;;;;;;;;4435899;32;20307;-68
2021/05/31 09:58:50;;;;;;;9.63;6.40;;;;;;;;;;4435993;32;20230;-67
2021/05/31 10:01:16;;;;;;;10.15;6.03;;;;;;;;;;4435507;32;20604;-67
2021/05/31 10:06:45;;;;;;;11.55;5.95;;;;;;;;;;4406118;32;20601;-67
2021/05/31 10:09:10;;;;;;;8.35;5.28;;;;;;;;;;4420433;32;20630;-68
2021/05/31 10:11:37;;;;;;;8.73;5.28;;;;;;;;;;4435499;32;20217;-67
2021/05/31 10:14:03;;;;;;;16.27;6.70;;;;;;;;;;4434033;32;20543;-67
2021/05/31 10:16:28;;;;;;;10.70;6.50;;;;;;;;;;4434578;32;20225;-68
2021/05/31 10:18:54;;;;;;;10.93;5.87;;;;;;;;;;4420940;32;20509;-68
2021/05/31 10:21:20;;;;;;;8.95;6.03;;;;;;;;;;4419867;32;20247;-67
2021/05/31 10:23:45;;;;;;;9.05;5.90;;;;;;;;;;4433997;32;20137;-68
2021/05/31 10:26:11;;;;;;;10.15;5.85;;;;;;;;;;4433952;32;20141;-68
2021/05/31 10:28:39;;;;;;;9.90;5.68;;;;;;;;;;4435845;32;20272;-67
2021/05/31 10:31:06;;;;;;;10.15;6.40;;;;;;;;;;4434548;32;20208;-68
2021/05/31 10:33:33;;;;;;;6.57;4.95;;;;;;;;;;4435722;32;20171;-68
2021/05/31 10:36:14;;;;;;;9.95;6.25;;;;;;;;;;4420175;32;20531;-67
2021/05/31 10:38:39;;;;;;;10.50;5.70;;;;;;;;;;4435624;32;20499;-69
2021/05/31 10:41:12;;;;;;;8.52;5.65;;;;;;;;;;4436057;32;20156;-68
2021/05/31 10:43:45;;;;;;;9.82;5.72;;;;;;;;;;4436369;32;20447;-66
2021/05/31 10:46:13;;;;;;;7.57;5.68;;;;;;;;;;4434643;32;20176;-67
2021/05/31 10:48:42;;;;;;;9.60;5.45;;;;;;;;;;4436628;32;20534;-68
2021/05/31 10:51:14;;;;;;;8.45;6.05;;;;;;;;;;4436545;32;20232;-67
2021/05/31 10:53:39;;;;;;;8.20;5.72;;;;;;;;;;4436530;32;20565;-68
2021/05/31 10:56:12;;;;;;;9.48;5.60;;;;;;;;;;4436357;32;20145;-68
2021/05/31 10:58:48;;;;;;;9.35;5.07;;;;;;;;;;4436272;32;20187;-68
2021/05/31 11:01:14;;;;;;;9.80;5.30;;;;;;;;;;4435672;32;20149;-68
2021/05/31 11:03:51;;;;;;;8.45;5.25;;;;;;;;;;4435442;32;20546;-68
2021/05/31 11:06:17;;;;;;;11.70;5.15;;;;;;;;;;4435471;32;20133;-68
2021/05/31 11:09:03;;;;;;;7.95;5.05;;;;;;;;;;4435337;32;20232;-68
2021/05/31 11:11:35;;;;;;;10.05;5.50;;;;;;;;;;4437206;32;20190;-68
2021/05/31 11:14:00;;;;;;;7.22;5.87;;;;;;;;;;4436500;32;20202;-68
2021/05/31 11:16:26;;;;;;;9.85;6.20;;;;;;;;;;4434701;32;20137;-68
2021/05/31 11:18:59;;;;;;;10.85;6.75;;;;;;;;;;4436882;32;20640;-68
2021/05/31 11:21:28;;;;;;;7.87;5.62;;;;;;;;;;4434877;32;20153;-67
2021/05/31 11:23:55;;;;;;;8.48;6.35;;;;;;;;;;4435027;32;20133;-67
2021/05/31 11:26:20;;;;;;;10.23;6.37;;;;;;;;;;4421215;32;20281;-67
2021/05/31 11:28:46;;;;;;;7.35;5.10;;;;;;;;;;4434373;32;20272;-67
2021/05/31 11:31:11;;;;;;;6.72;4.53;;;;;;;;;;4420502;32;20162;-67
2021/05/31 11:33:36;;;;;;;7.73;4.70;;;;;;;;;;4425485;32;20168;-68
2021/05/31 11:36:02;;;;;;;7.35;4.87;;;;;;;;;;4420187;32;20195;-68
2021/05/31 11:38:27;;;;;;;7.10;4.60;;;;;;;;;;4419748;32;20532;-70
2021/05/31 11:40:52;;;;;;;5.77;4.43;;;;;;;;;;4419141;32;20226;-68
2021/05/31 11:43:17;;;;;;;6.20;4.35;;;;;;;;;;4418566;32;20368;-68
2021/05/31 11:45:45;;;;;;;7.27;4.23;;;;;;;;;;4417667;32;20157;-68
2021/05/31 11:48:15;;;;;;;5.95;3.60;;;;;;;;;;4424042;32;20253;-66
2021/05/31 11:50:41;;;;;;;8.93;5.37;;;;;;;;;;4427152;32;20707;-68
2021/05/31 11:53:11;;;;;;;5.97;4.43;;;;;;;;;;4432354;32;20146;-66
2021/05/31 11:55:37;;;;;;;7.57;4.07;;;;;;;;;;4434985;32;20169;-66
2021/05/31 11:58:03;;;;;;;5.53;3.50;;;;;;;;;;4419315;32;20161;-70
2021/05/31 12:00:29;;;;;;;6.93;3.92;;;;;;;;;;4434143;32;20611;-68
2021/05/31 12:02:55;;;;;;;6.85;4.43;;;;;;;;;;4436565;32;20296;-68
2021/05/31 12:05:31;;;;;;;6.87;4.50;;;;;;;;;;4434665;32;20229;-68
2021/05/31 12:08:00;;;;;;;6.65;4.68;;;;;;;;;;4420822;32;20164;-67
2021/05/31 12:10:26;;;;;;;5.90;4.00;;;;;;;;;;4420018;32;20519;-67
2021/05/31 12:12:51;;;;;;;5.87;4.28;;;;;;;;;;4434982;32;20187;-68
2021/05/31 12:15:17;;;;;;;4.72;4.03;;;;;;;;;;4432468;32;20141;-68
2021/05/31 12:17:43;;;;;;;5.55;3.53;;;;;;;;;;4421674;32;20590;-69
2021/05/31 12:20:08;;;;;;;5.45;4.10;;;;;;;;;;4434046;32;20153;-67
2021/05/31 12:22:37;;;;;;;10.27;5.60;;;;;;;;;;4436313;32;20169;-68
2021/05/31 12:25:03;;;;;;;5.25;4.37;;;;;;;;;;4434495;32;20160;-67
2021/05/31 12:27:29;;;;;;;6.10;3.95;;;;;;;;;;4434522;32;20137;-68
2021/05/31 12:29:54;;;;;;;4.93;3.80;;;;;;;;;;4434501;32;20180;-66
2021/05/31 12:32:21;;;;;;;6.47;4.18;;;;;;;;;;4434363;32;20621;-68
2021/05/31 12:34:46;;;;;;;7.75;4.43;;;;;;;;;;4433965;32;20160;-68
2021/05/31 12:37:15;;;;;;;7.25;4.10;;;;;;;;;;4434758;32;20138;-68
2021/05/31 12:39:41;;;;;;;7.72;3.85;;;;;;;;;;4425931;32;20582;-68
2021/05/31 12:42:07;;;;;;;7.07;3.60;;;;;;;;;;4429464;32;20142;-68
2021/05/31 12:44:32;;;;;;;5.00;3.58;;;;;;;;;;4417105;32;20633;-67
2021/05/31 12:47:09;;;;;;;6.47;4.00;;;;;;;;;;4431617;32;20149;-68
2021/05/31 12:49:34;;;;;;;7.55;4.35;;;;;;;;;;4419313;32;20152;-68
2021/05/31 12:51:59;;;;;;;4.75;3.55;;;;;;;;;;4431243;32;20200;-68
2021/05/31 12:54:25;;;;;;;6.25;3.78;;;;;;;;;;4418635;32;20202;-67
2021/05/31 12:56:52;;;;;;;4.05;3.65;;;;;;;;;;4432833;32;20211;-68
2021/05/31 12:59:23;;;;;;;5.32;3.92;;;;;;;;;;4432776;32;20257;-68
2021/05/31 13:01:48;;;;;;;5.20;4.55;;;;;;;;;;4433682;32;20134;-67
2021/05/31 13:04:13;;;;;;;7.47;4.30;;;;;;;;;;4418915;32;20161;-68
2021/05/31 13:06:39;;;;;;;6.00;4.07;;;;;;;;;;4433672;32;20197;-67
2021/05/31 13:09:06;;;;;;;6.85;4.80;;;;;;;;;;4415803;32;20269;-68
2021/05/31 13:11:38;;;;;;;6.68;4.28;;;;;;;;;;4416655;32;20165;-67
2021/05/31 13:14:13;;;;;;;6.25;3.95;;;;;;;;;;4416785;32;20422;-67
2021/05/31 13:16:38;;;;;;;6.57;4.10;;;;;;;;;;4417094;32;20251;-68
2021/05/31 13:19:03;;;;;;;6.77;4.30;;;;;;;;;;4417327;32;20597;-68
2021/05/31 13:21:31;;;;;;;8.85;5.20;;;;;;;;;;4417550;32;20238;-67
2021/05/31 13:23:56;;;;;;;7.65;4.32;;;;;;;;;;4419204;32;20194;-67
2021/05/31 13:26:25;;;;;;;6.53;4.62;;;;;;;;;;4421032;32;20130;-67
2021/05/31 13:28:54;;;;;;;6.80;4.65;;;;;;;;;;4406620;32;20231;-67
2021/05/31 13:31:20;;;;;;;6.62;4.97;;;;;;;;;;4404842;32;20193;-67
2021/05/31 13:33:49;;;;;;;8.95;4.90;;;;;;;;;;4404733;32;20130;-68
2021/05/31 13:36:16;;;;;;;8.32;4.50;;;;;;;;;;4405939;32;20142;-69
2021/05/31 13:38:41;;;;;;;11.52;5.30;;;;;;;;;;4407144;32;20583;-68
2021/05/31 13:41:06;;;;;;;7.50;4.10;;;;;;;;;;4404095;32;20166;-68
2021/05/31 13:43:34;;;;;;;9.70;4.90;;;;;;;;;;4405125;32;20138;-68
2021/05/31 13:46:00;;;;;;;10.20;5.45;;;;;;;;;;4405969;32;20235;-68
2021/05/31 13:48:25;;;;;;;6.65;4.75;;;;;;;;;;4406772;32;20547;-68
2021/05/31 13:50:52;;;;;;;5.45;4.80;;;;;;;;;;4406060;32;20134;-69
2021/05/31 13:53:17;;;;;;;6.40;4.40;;;;;;;;;;4404967;32;20166;-68
2021/05/31 13:55:43;;;;;;;7.37;4.93;;;;;;;;;;4404249;32;20134;-68
2021/05/31 13:58:09;;;;;;;6.47;4.85;;;;;;;;;;4405944;32;20257;-68
2021/05/31 14:00:34;;;;;;;6.32;5.18;;;;;;;;;;4403492;32;20165;-68
2021/05/31 14:03:00;;;;;;;8.30;5.22;;;;;;;;;;4403644;32;20251;-67
2021/05/31 14:05:27;;;;;;;7.43;5.28;;;;;;;;;;4402820;32;20170;-68
2021/05/31 14:07:52;;;;;;;8.80;5.70;;;;;;;;;;4409196;32;20210;-66
2021/05/31 14:10:18;;;;;;;8.65;5.53;;;;;;;;;;4406044;32;20169;-68
2021/05/31 14:12:43;;;;;;;7.07;5.60;;;;;;;;;;4420249;32;20214;-67
2021/05/31 14:15:09;;;;;;;7.18;5.30;;;;;;;;;;4425962;32;20137;-68
2021/05/31 14:17:34;;;;;;;6.70;4.57;;;;;;;;;;4435986;32;20658;-68
2021/05/31 14:20:01;;;;;;;6.75;4.60;;;;;;;;;;4435147;32;20198;-66
2021/05/31 14:22:26;;;;;;;6.95;4.80;;;;;;;;;;4432678;32;20192;-67
2021/05/31 14:24:52;;;;;;;9.00;4.50;;;;;;;;;;4435171;32;20179;-67
2021/05/31 14:27:18;;;;;;;4.90;3.90;;;;;;;;;;4420158;32;20311;-67
2021/05/31 14:29:43;;;;;;;6.93;4.25;;;;;;;;;;4436896;32;20221;-68
2021/05/31 14:32:09;;;;;;;7.07;4.80;;;;;;;;;;4436315;32;20433;-67
2021/05/31 14:34:35;;;;;;;7.35;4.62;;;;;;;;;;4435950;32;20194;-68